sensor_id;sensor_type;location;lat;lon;timestamp;temperature;humidity
26954;DHT22;14508;50.924;11.600;2023-07-31T00:02:09;18.00;83.80
26954;DHT22;14508;50.924;11.600;2023-07-31T00:04:37;18.00;84.00
26954;DHT22;14508;50.924;11.600;2023-07-31T00:07:05;17.90;84.00
26954;DHT22;14508;50.924;11.600;2023-07-31T00:09:33;17.90;84.20
26954;DHT22;14508;50.924;11.600;2023-07-31T00:12:01;18.00;84.50
26954;DHT22;14508;50.924;11.600;2023-07-31T00:14:29;17.90;85.10
26954;DHT22;14508;50.924;11.600;2023-07-31T00:16:57;18.00;84.80
26954;DHT22;14508;50.924;11.600;2023-07-31T00:19:26;18.00;84.60
26954;DHT22;14508;50.924;11.600;2023-07-31T00:21:54;18.00;84.90
26954;DHT22;14508;50.924;11.600;2023-07-31T00:24:22;18.00;84.20
26954;DHT22;14508;50.924;11.600;2023-07-31T00:26:50;18.00;84.90
26954;DHT22;14508;50.924;11.600;2023-07-31T00:29:19;18.00;84.90
26954;DHT22;14508;50.924;11.600;2023-07-31T00:31:47;18.00;84.20
26954;DHT22;14508;50.924;11.600;2023-07-31T00:34:17;18.00;84.30
26954;DHT22;14508;50.924;11.600;2023-07-31T00:36:46;18.00;84.90
26954;DHT22;14508;50.924;11.600;2023-07-31T00:39:16;18.10;85.00
26954;DHT22;14508;50.924;11.600;2023-07-31T00:41:44;18.10;85.60
26954;DHT22;14508;50.924;11.600;2023-07-31T00:44:12;18.10;86.20
26954;DHT22;14508;50.924;11.600;2023-07-31T00:46:40;18.10;87.20
26954;DHT22;14508;50.924;11.600;2023-07-31T00:49:09;18.10;86.90
26954;DHT22;14508;50.924;11.600;2023-07-31T00:51:37;18.10;87.20
26954;DHT22;14508;50.924;11.600;2023-07-31T00:54:07;18.10;87.90
26954;DHT22;14508;50.924;11.600;2023-07-31T00:56:35;18.10;90.10
26954;DHT22;14508;50.924;11.600;2023-07-31T00:59:04;18.10;90.80
26954;DHT22;14508;50.924;11.600;2023-07-31T01:01:32;18.10;91.10
26954;DHT22;14508;50.924;11.600;2023-07-31T01:04:00;18.10;92.40
26954;DHT22;14508;50.924;11.600;2023-07-31T01:06:35;18.00;92.70
26954;DHT22;14508;50.924;11.600;2023-07-31T01:09:10;18.00;92.70
26954;DHT22;14508;50.924;11.600;2023-07-31T01:11:45;17.90;93.80
26954;DHT22;14508;50.924;11.600;2023-07-31T01:14:14;17.90;94.20
26954;DHT22;14508;50.924;11.600;2023-07-31T01:16:42;17.80;94.60
26954;DHT22;14508;50.924;11.600;2023-07-31T01:19:11;17.80;95.60
26954;DHT22;14508;50.924;11.600;2023-07-31T01:22:04;17.70;96.50
26954;DHT22;14508;50.924;11.600;2023-07-31T01:24:49;17.70;97.60
26954;DHT22;14508;50.924;11.600;2023-07-31T01:27:24;17.50;98.50
26954;DHT22;14508;50.924;11.600;2023-07-31T01:30:02;17.50;99.10
26954;DHT22;14508;50.924;11.600;2023-07-31T01:32:39;17.50;99.30
26954;DHT22;14508;50.924;11.600;2023-07-31T01:35:08;17.40;99.20
26954;DHT22;14508;50.924;11.600;2023-07-31T01:37:37;17.40;99.90
26954;DHT22;14508;50.924;11.600;2023-07-31T01:40:05;17.40;99.90
26954;DHT22;14508;50.924;11.600;2023-07-31T01:42:35;17.40;99.90
26954;DHT22;14508;50.924;11.600;2023-07-31T01:45:04;17.40;99.90
26954;DHT22;14508;50.924;11.600;2023-07-31T01:47:32;17.40;99.90
26954;DHT22;14508;50.924;11.600;2023-07-31T01:50:00;17.40;99.90
26954;DHT22;14508;50.924;11.600;2023-07-31T01:52:28;17.40;99.90
26954;DHT22;14508;50.924;11.600;2023-07-31T01:54:56;17.30;99.90
26954;DHT22;14508;50.924;11.600;2023-07-31T01:57:24;17.40;99.90
26954;DHT22;14508;50.924;11.600;2023-07-31T01:59:54;17.30;99.90
26954;DHT22;14508;50.924;11.600;2023-07-31T02:02:23;17.30;99.90
26954;DHT22;14508;50.924;11.600;2023-07-31T02:04:51;17.30;99.90
26954;DHT22;14508;50.924;11.600;2023-07-31T02:07:19;17.30;99.90
26954;DHT22;14508;50.924;11.600;2023-07-31T02:09:47;17.30;99.90
26954;DHT22;14508;50.924;11.600;2023-07-31T02:12:16;17.30;99.90
26954;DHT22;14508;50.924;11.600;2023-07-31T02:14:44;17.30;99.90
26954;DHT22;14508;50.924;11.600;2023-07-31T02:17:13;17.30;99.90
26954;DHT22;14508;50.924;11.600;2023-07-31T02:19:41;17.30;99.90
26954;DHT22;14508;50.924;11.600;2023-07-31T02:22:09;17.30;99.90
26954;DHT22;14508;50.924;11.600;2023-07-31T02:24:37;17.30;99.90
26954;DHT22;14508;50.924;11.600;2023-07-31T02:27:05;17.30;99.90
26954;DHT22;14508;50.924;11.600;2023-07-31T02:29:33;17.30;99.90
26954;DHT22;14508;50.924;11.600;2023-07-31T02:32:02;17.30;99.90
26954;DHT22;14508;50.924;11.600;2023-07-31T02:34:31;17.30;99.90
26954;DHT22;14508;50.924;11.600;2023-07-31T02:36:59;17.20;99.90
26954;DHT22;14508;50.924;11.600;2023-07-31T02:39:27;17.30;99.90
26954;DHT22;14508;50.924;11.600;2023-07-31T02:41:55;17.20;99.90
26954;DHT22;14508;50.924;11.600;2023-07-31T02:44:23;17.20;99.90
26954;DHT22;14508;50.924;11.600;2023-07-31T02:46:51;17.20;99.90
26954;DHT22;14508;50.924;11.600;2023-07-31T02:49:18;17.20;99.90
26954;DHT22;14508;50.924;11.600;2023-07-31T02:51:48;17.10;99.90
26954;DHT22;14508;50.924;11.600;2023-07-31T02:54:16;17.10;99.90
26954;DHT22;14508;50.924;11.600;2023-07-31T02:56:44;17.00;99.90
26954;DHT22;14508;50.924;11.600;2023-07-31T02:59:12;17.00;99.90
26954;DHT22;14508;50.924;11.600;2023-07-31T03:01:39;16.90;99.90
26954;DHT22;14508;50.924;11.600;2023-07-31T03:04:07;16.90;99.90
26954;DHT22;14508;50.924;11.600;2023-07-31T03:06:35;16.80;99.90
26954;DHT22;14508;50.924;11.600;2023-07-31T03:09:05;16.80;99.90
26954;DHT22;14508;50.924;11.600;2023-07-31T03:11:33;16.70;99.90
26954;DHT22;14508;50.924;11.600;2023-07-31T03:14:01;16.70;99.90
26954;DHT22;14508;50.924;11.600;2023-07-31T03:16:29;16.60;99.90
26954;DHT22;14508;50.924;11.600;2023-07-31T03:18:57;16.50;99.90
26954;DHT22;14508;50.924;11.600;2023-07-31T03:21:25;16.50;99.90
26954;DHT22;14508;50.924;11.600;2023-07-31T03:23:53;16.40;99.90
26954;DHT22;14508;50.924;11.600;2023-07-31T03:26:22;16.40;99.90
26954;DHT22;14508;50.924;11.600;2023-07-31T03:28:50;16.40;99.90
26954;DHT22;14508;50.924;11.600;2023-07-31T03:31:19;16.40;99.90
26954;DHT22;14508;50.924;11.600;2023-07-31T03:33:48;16.30;99.90
26954;DHT22;14508;50.924;11.600;2023-07-31T03:36:16;16.30;99.90
26954;DHT22;14508;50.924;11.600;2023-07-31T03:38:44;16.30;99.90
26954;DHT22;14508;50.924;11.600;2023-07-31T03:41:11;16.20;99.90
26954;DHT22;14508;50.924;11.600;2023-07-31T03:43:41;16.20;99.90
26954;DHT22;14508;50.924;11.600;2023-07-31T03:46:09;16.20;99.90
26954;DHT22;14508;50.924;11.600;2023-07-31T03:48:37;16.10;99.90
26954;DHT22;14508;50.924;11.600;2023-07-31T03:51:05;16.10;99.90
26954;DHT22;14508;50.924;11.600;2023-07-31T03:53:33;16.10;99.90
26954;DHT22;14508;50.924;11.600;2023-07-31T03:56:01;16.10;99.90
26954;DHT22;14508;50.924;11.600;2023-07-31T03:58:29;16.10;99.90
26954;DHT22;14508;50.924;11.600;2023-07-31T04:00:58;16.10;99.90
26954;DHT22;14508;50.924;11.600;2023-07-31T04:03:26;16.10;99.90
26954;DHT22;14508;50.924;11.600;2023-07-31T04:05:55;16.10;99.90
26954;DHT22;14508;50.924;11.600;2023-07-31T04:08:23;16.10;99.90
26954;DHT22;14508;50.924;11.600;2023-07-31T04:10:51;16.10;99.90
26954;DHT22;14508;50.924;11.600;2023-07-31T04:13:19;16.10;99.90
26954;DHT22;14508;50.924;11.600;2023-07-31T04:15:48;16.10;99.90
26954;DHT22;14508;50.924;11.600;2023-07-31T04:18:18;16.10;99.90
26954;DHT22;14508;50.924;11.600;2023-07-31T04:20:46;16.10;99.90
26954;DHT22;14508;50.924;11.600;2023-07-31T04:23:14;16.10;99.90
26954;DHT22;14508;50.924;11.600;2023-07-31T04:25:42;16.10;99.90
26954;DHT22;14508;50.924;11.600;2023-07-31T04:28:10;16.10;99.90
26954;DHT22;14508;50.924;11.600;2023-07-31T04:30:39;16.10;99.90
26954;DHT22;14508;50.924;11.600;2023-07-31T04:33:07;16.10;99.90
26954;DHT22;14508;50.924;11.600;2023-07-31T04:35:36;16.10;99.90
26954;DHT22;14508;50.924;11.600;2023-07-31T04:38:04;16.10;99.90
26954;DHT22;14508;50.924;11.600;2023-07-31T04:40:32;16.10;99.90
26954;DHT22;14508;50.924;11.600;2023-07-31T04:43:00;16.10;99.90
26954;DHT22;14508;50.924;11.600;2023-07-31T04:45:28;16.20;99.90
26954;DHT22;14508;50.924;11.600;2023-07-31T04:47:56;16.20;99.90
26954;DHT22;14508;50.924;11.600;2023-07-31T04:50:24;16.20;99.90
26954;DHT22;14508;50.924;11.600;2023-07-31T04:52:53;16.20;99.90
26954;DHT22;14508;50.924;11.600;2023-07-31T04:55:21;16.20;99.90
26954;DHT22;14508;50.924;11.600;2023-07-31T04:57:49;16.20;99.90
26954;DHT22;14508;50.924;11.600;2023-07-31T05:00:17;16.30;99.90
26954;DHT22;14508;50.924;11.600;2023-07-31T05:02:45;16.30;99.90
26954;DHT22;14508;50.924;11.600;2023-07-31T05:05:13;16.30;99.90
26954;DHT22;14508;50.924;11.600;2023-07-31T05:07:41;16.30;99.90
26954;DHT22;14508;50.924;11.600;2023-07-31T05:10:11;16.40;99.90
26954;DHT22;14508;50.924;11.600;2023-07-31T05:12:39;16.40;99.90
26954;DHT22;14508;50.924;11.600;2023-07-31T05:15:07;16.50;99.90
26954;DHT22;14508;50.924;11.600;2023-07-31T05:17:35;16.50;99.90
26954;DHT22;14508;50.924;11.600;2023-07-31T05:20:04;16.60;99.90
26954;DHT22;14508;50.924;11.600;2023-07-31T05:22:33;16.60;99.90
26954;DHT22;14508;50.924;11.600;2023-07-31T05:25:01;16.60;99.90
26954;DHT22;14508;50.924;11.600;2023-07-31T05:27:30;16.60;99.90
26954;DHT22;14508;50.924;11.600;2023-07-31T05:29:59;16.70;99.90
26954;DHT22;14508;50.924;11.600;2023-07-31T05:32:27;16.70;99.90
26954;DHT22;14508;50.924;11.600;2023-07-31T05:34:55;16.80;99.90
26954;DHT22;14508;50.924;11.600;2023-07-31T05:37:23;16.80;99.90
26954;DHT22;14508;50.924;11.600;2023-07-31T05:39:51;16.90;99.90
26954;DHT22;14508;50.924;11.600;2023-07-31T05:42:19;16.90;99.90
26954;DHT22;14508;50.924;11.600;2023-07-31T05:44:49;17.00;99.90
26954;DHT22;14508;50.924;11.600;2023-07-31T05:47:17;17.00;99.90
26954;DHT22;14508;50.924;11.600;2023-07-31T05:49:44;17.10;99.90
26954;DHT22;14508;50.924;11.600;2023-07-31T05:52:12;17.10;99.90
26954;DHT22;14508;50.924;11.600;2023-07-31T05:54:41;17.10;99.90
26954;DHT22;14508;50.924;11.600;2023-07-31T05:57:09;17.10;99.90
26954;DHT22;14508;50.924;11.600;2023-07-31T05:59:37;17.20;99.90
26954;DHT22;14508;50.924;11.600;2023-07-31T06:02:07;17.20;99.90
26954;DHT22;14508;50.924;11.600;2023-07-31T06:04:35;17.30;99.90
26954;DHT22;14508;50.924;11.600;2023-07-31T06:07:03;17.30;99.90
26954;DHT22;14508;50.924;11.600;2023-07-31T06:09:31;17.30;99.90
26954;DHT22;14508;50.924;11.600;2023-07-31T06:11:59;17.30;99.90
26954;DHT22;14508;50.924;11.600;2023-07-31T06:14:27;17.30;99.90
26954;DHT22;14508;50.924;11.600;2023-07-31T06:16:55;17.40;99.90
26954;DHT22;14508;50.924;11.600;2023-07-31T06:19:24;17.40;99.90
26954;DHT22;14508;50.924;11.600;2023-07-31T06:21:52;17.50;99.90
26954;DHT22;14508;50.924;11.600;2023-07-31T06:24:20;17.50;99.90
26954;DHT22;14508;50.924;11.600;2023-07-31T06:26:48;17.60;99.90
26954;DHT22;14508;50.924;11.600;2023-07-31T06:29:17;17.60;99.90
26954;DHT22;14508;50.924;11.600;2023-07-31T06:31:45;17.70;99.90
26954;DHT22;14508;50.924;11.600;2023-07-31T06:34:13;17.70;99.90
26954;DHT22;14508;50.924;11.600;2023-07-31T06:36:43;17.80;99.90
26954;DHT22;14508;50.924;11.600;2023-07-31T06:39:10;17.80;99.90
26954;DHT22;14508;50.924;11.600;2023-07-31T06:41:39;17.90;99.90
26954;DHT22;14508;50.924;11.600;2023-07-31T06:44:09;17.90;99.90
26954;DHT22;14508;50.924;11.600;2023-07-31T06:46:37;17.90;99.90
26954;DHT22;14508;50.924;11.600;2023-07-31T06:49:06;17.90;99.90
26954;DHT22;14508;50.924;11.600;2023-07-31T06:51:34;18.00;99.90
26954;DHT22;14508;50.924;11.600;2023-07-31T06:54:04;18.00;99.90
26954;DHT22;14508;50.924;11.600;2023-07-31T06:56:32;18.10;99.90
26954;DHT22;14508;50.924;11.600;2023-07-31T06:59:00;18.10;99.90
26954;DHT22;14508;50.924;11.600;2023-07-31T07:01:28;18.10;99.90
26954;DHT22;14508;50.924;11.600;2023-07-31T07:03:56;18.10;99.90
26954;DHT22;14508;50.924;11.600;2023-07-31T07:06:24;18.10;99.90
26954;DHT22;14508;50.924;11.600;2023-07-31T07:08:52;18.10;99.90
26954;DHT22;14508;50.924;11.600;2023-07-31T07:11:21;18.10;99.90
26954;DHT22;14508;50.924;11.600;2023-07-31T07:13:49;18.10;99.90
26954;DHT22;14508;50.924;11.600;2023-07-31T07:16:17;18.10;99.90
26954;DHT22;14508;50.924;11.600;2023-07-31T07:18:45;18.20;99.90
26954;DHT22;14508;50.924;11.600;2023-07-31T07:21:30;18.30;99.90
26954;DHT22;14508;50.924;11.600;2023-07-31T07:23:58;18.30;99.90
26954;DHT22;14508;50.924;11.600;2023-07-31T07:26:27;18.30;99.90
26954;DHT22;14508;50.924;11.600;2023-07-31T07:28:55;18.30;99.90
26954;DHT22;14508;50.924;11.600;2023-07-31T07:31:27;18.40;99.90
26954;DHT22;14508;50.924;11.600;2023-07-31T07:33:55;18.50;99.90
26954;DHT22;14508;50.924;11.600;2023-07-31T07:36:23;18.60;99.90
26954;DHT22;14508;50.924;11.600;2023-07-31T07:38:51;18.60;99.90
26954;DHT22;14508;50.924;11.600;2023-07-31T07:41:19;18.70;99.90
26954;DHT22;14508;50.924;11.600;2023-07-31T07:43:49;18.80;99.90
26954;DHT22;14508;50.924;11.600;2023-07-31T07:46:18;18.80;99.90
26954;DHT22;14508;50.924;11.600;2023-07-31T07:48:46;18.90;99.90
26954;DHT22;14508;50.924;11.600;2023-07-31T07:51:13;19.00;99.90
26954;DHT22;14508;50.924;11.600;2023-07-31T07:53:41;19.00;99.90
26954;DHT22;14508;50.924;11.600;2023-07-31T07:56:09;19.00;99.90
26954;DHT22;14508;50.924;11.600;2023-07-31T07:58:37;19.00;99.90
26954;DHT22;14508;50.924;11.600;2023-07-31T08:01:06;19.00;99.90
26954;DHT22;14508;50.924;11.600;2023-07-31T08:03:34;19.10;99.90
26954;DHT22;14508;50.924;11.600;2023-07-31T08:06:02;19.10;99.90
26954;DHT22;14508;50.924;11.600;2023-07-31T08:08:30;19.10;99.90
26954;DHT22;14508;50.924;11.600;2023-07-31T08:10:58;19.10;99.90
26954;DHT22;14508;50.924;11.600;2023-07-31T08:13:26;19.10;99.90
26954;DHT22;14508;50.924;11.600;2023-07-31T08:15:54;19.00;99.90
26954;DHT22;14508;50.924;11.600;2023-07-31T08:18:24;19.10;99.90
26954;DHT22;14508;50.924;11.600;2023-07-31T08:20:52;19.20;99.90
26954;DHT22;14508;50.924;11.600;2023-07-31T08:23:20;19.30;99.90
26954;DHT22;14508;50.924;11.600;2023-07-31T08:25:48;19.40;99.90
26954;DHT22;14508;50.924;11.600;2023-07-31T08:28:17;19.50;99.90
26954;DHT22;14508;50.924;11.600;2023-07-31T08:30:45;19.50;99.90
26954;DHT22;14508;50.924;11.600;2023-07-31T08:33:13;19.60;99.90
26954;DHT22;14508;50.924;11.600;2023-07-31T08:35:42;19.60;99.90
26954;DHT22;14508;50.924;11.600;2023-07-31T08:38:11;19.70;99.90
26954;DHT22;14508;50.924;11.600;2023-07-31T08:40:39;19.70;99.90
26954;DHT22;14508;50.924;11.600;2023-07-31T08:43:08;19.80;99.90
26954;DHT22;14508;50.924;11.600;2023-07-31T08:45:36;19.90;99.90
26954;DHT22;14508;50.924;11.600;2023-07-31T08:48:05;20.00;99.90
26954;DHT22;14508;50.924;11.600;2023-07-31T08:50:33;20.10;99.90
26954;DHT22;14508;50.924;11.600;2023-07-31T08:53:03;20.20;99.90
26954;DHT22;14508;50.924;11.600;2023-07-31T08:55:32;20.30;99.90
26954;DHT22;14508;50.924;11.600;2023-07-31T08:58:01;20.30;99.90
26954;DHT22;14508;50.924;11.600;2023-07-31T09:00:32;20.40;99.90
26954;DHT22;14508;50.924;11.600;2023-07-31T09:03:03;20.30;99.90
26954;DHT22;14508;50.924;11.600;2023-07-31T09:05:36;20.30;99.90
26954;DHT22;14508;50.924;11.600;2023-07-31T09:08:09;20.10;99.90
26954;DHT22;14508;50.924;11.600;2023-07-31T09:10:40;20.00;99.90
26954;DHT22;14508;50.924;11.600;2023-07-31T09:13:09;20.00;99.90
26954;DHT22;14508;50.924;11.600;2023-07-31T09:15:39;20.00;99.90
26954;DHT22;14508;50.924;11.600;2023-07-31T09:18:08;20.00;99.90
26954;DHT22;14508;50.924;11.600;2023-07-31T09:20:36;20.10;99.90
26954;DHT22;14508;50.924;11.600;2023-07-31T09:23:11;20.10;99.90
26954;DHT22;14508;50.924;11.600;2023-07-31T09:25:41;20.00;99.90
26954;DHT22;14508;50.924;11.600;2023-07-31T09:28:11;20.00;99.90
26954;DHT22;14508;50.924;11.600;2023-07-31T09:30:45;20.00;99.90
26954;DHT22;14508;50.924;11.600;2023-07-31T09:33:15;20.00;99.90
26954;DHT22;14508;50.924;11.600;2023-07-31T09:35:43;20.10;99.90
26954;DHT22;14508;50.924;11.600;2023-07-31T09:38:13;20.20;99.90
26954;DHT22;14508;50.924;11.600;2023-07-31T09:40:42;20.30;99.90
26954;DHT22;14508;50.924;11.600;2023-07-31T09:43:11;20.50;99.90
26954;DHT22;14508;50.924;11.600;2023-07-31T09:45:41;20.70;99.90
26954;DHT22;14508;50.924;11.600;2023-07-31T09:48:11;20.80;99.90
26954;DHT22;14508;50.924;11.600;2023-07-31T09:50:41;21.00;99.90
26954;DHT22;14508;50.924;11.600;2023-07-31T09:53:09;21.20;99.90
26954;DHT22;14508;50.924;11.600;2023-07-31T09:55:40;21.30;98.80
26954;DHT22;14508;50.924;11.600;2023-07-31T09:58:10;21.40;97.70
26954;DHT22;14508;50.924;11.600;2023-07-31T10:00:38;21.50;97.90
26954;DHT22;14508;50.924;11.600;2023-07-31T10:03:08;21.60;96.50
26954;DHT22;14508;50.924;11.600;2023-07-31T10:05:40;21.60;96.60
26954;DHT22;14508;50.924;11.600;2023-07-31T10:08:10;21.70;95.70
26954;DHT22;14508;50.924;11.600;2023-07-31T10:10:43;21.60;94.80
26954;DHT22;14508;50.924;11.600;2023-07-31T10:13:12;21.60;94.50
26954;DHT22;14508;50.924;11.600;2023-07-31T10:15:41;21.70;94.30
26954;DHT22;14508;50.924;11.600;2023-07-31T10:18:10;21.70;93.90
26954;DHT22;14508;50.924;11.600;2023-07-31T10:20:40;21.80;93.20
26954;DHT22;14508;50.924;11.600;2023-07-31T10:23:08;21.70;92.60
26954;DHT22;14508;50.924;11.600;2023-07-31T10:25:37;21.80;93.20
26954;DHT22;14508;50.924;11.600;2023-07-31T10:28:08;21.90;93.00
26954;DHT22;14508;50.924;11.600;2023-07-31T10:30:38;21.80;91.40
26954;DHT22;14508;50.924;11.600;2023-07-31T10:33:07;21.90;91.00
26954;DHT22;14508;50.924;11.600;2023-07-31T10:35:35;21.90;90.20
26954;DHT22;14508;50.924;11.600;2023-07-31T10:38:10;22.10;90.00
26954;DHT22;14508;50.924;11.600;2023-07-31T10:40:39;22.10;87.70
26954;DHT22;14508;50.924;11.600;2023-07-31T10:43:09;22.10;86.70
26954;DHT22;14508;50.924;11.600;2023-07-31T10:45:51;22.10;87.90
26954;DHT22;14508;50.924;11.600;2023-07-31T10:48:18;22.20;88.20
26954;DHT22;14508;50.924;11.600;2023-07-31T10:50:48;22.30;87.80
26954;DHT22;14508;50.924;11.600;2023-07-31T10:53:23;22.50;85.80
26954;DHT22;14508;50.924;11.600;2023-07-31T10:55:51;22.60;83.20
26954;DHT22;14508;50.924;11.600;2023-07-31T10:58:21;22.70;82.80
26954;DHT22;14508;50.924;11.600;2023-07-31T11:00:49;22.70;82.80
26954;DHT22;14508;50.924;11.600;2023-07-31T11:03:19;22.70;82.00
26954;DHT22;14508;50.924;11.600;2023-07-31T11:05:51;22.70;80.60
26954;DHT22;14508;50.924;11.600;2023-07-31T11:08:22;22.70;81.30
26954;DHT22;14508;50.924;11.600;2023-07-31T11:10:51;22.60;80.70
26954;DHT22;14508;50.924;11.600;2023-07-31T11:13:34;22.60;80.40
26954;DHT22;14508;50.924;11.600;2023-07-31T11:16:06;22.50;80.00
26954;DHT22;14508;50.924;11.600;2023-07-31T11:18:35;22.40;80.20
26954;DHT22;14508;50.924;11.600;2023-07-31T11:21:03;22.30;80.90
26954;DHT22;14508;50.924;11.600;2023-07-31T11:23:31;22.30;80.40
26954;DHT22;14508;50.924;11.600;2023-07-31T11:25:59;22.20;80.90
26954;DHT22;14508;50.924;11.600;2023-07-31T11:28:33;22.10;81.80
26954;DHT22;14508;50.924;11.600;2023-07-31T11:31:02;22.00;81.50
26954;DHT22;14508;50.924;11.600;2023-07-31T11:33:30;21.90;83.00
26954;DHT22;14508;50.924;11.600;2023-07-31T11:35:58;21.80;82.30
26954;DHT22;14508;50.924;11.600;2023-07-31T11:38:28;21.90;83.00
26954;DHT22;14508;50.924;11.600;2023-07-31T11:40:59;21.90;82.80
26954;DHT22;14508;50.924;11.600;2023-07-31T11:43:27;22.00;82.40
26954;DHT22;14508;50.924;11.600;2023-07-31T11:45:58;22.10;79.80
26954;DHT22;14508;50.924;11.600;2023-07-31T11:48:31;22.00;79.10
26954;DHT22;14508;50.924;11.600;2023-07-31T11:51:01;22.10;80.50
26954;DHT22;14508;50.924;11.600;2023-07-31T11:53:33;22.00;85.50
26954;DHT22;14508;50.924;11.600;2023-07-31T11:56:03;22.10;88.00
26954;DHT22;14508;50.924;11.600;2023-07-31T11:58:34;22.20;87.00
26954;DHT22;14508;50.924;11.600;2023-07-31T12:01:04;22.10;86.30
26954;DHT22;14508;50.924;11.600;2023-07-31T12:03:33;22.00;85.80
26954;DHT22;14508;50.924;11.600;2023-07-31T12:06:01;22.20;85.30
26954;DHT22;14508;50.924;11.600;2023-07-31T12:08:30;22.30;85.70
26954;DHT22;14508;50.924;11.600;2023-07-31T12:11:02;22.20;84.90
26954;DHT22;14508;50.924;11.600;2023-07-31T12:13:32;22.40;84.50
26954;DHT22;14508;50.924;11.600;2023-07-31T12:16:02;22.50;85.30
26954;DHT22;14508;50.924;11.600;2023-07-31T12:18:34;22.80;85.30
26954;DHT22;14508;50.924;11.600;2023-07-31T12:21:04;23.00;81.70
26954;DHT22;14508;50.924;11.600;2023-07-31T12:23:33;23.20;80.50
26954;DHT22;14508;50.924;11.600;2023-07-31T12:26:02;23.50;80.40
26954;DHT22;14508;50.924;11.600;2023-07-31T12:28:32;23.70;78.80
26954;DHT22;14508;50.924;11.600;2023-07-31T12:31:02;23.90;77.60
26954;DHT22;14508;50.924;11.600;2023-07-31T12:33:35;24.10;77.20
26954;DHT22;14508;50.924;11.600;2023-07-31T12:36:09;24.40;77.50
26954;DHT22;14508;50.924;11.600;2023-07-31T12:38:37;24.50;75.30
26954;DHT22;14508;50.924;11.600;2023-07-31T12:41:05;24.50;73.30
26954;DHT22;14508;50.924;11.600;2023-07-31T12:43:34;24.50;73.30
26954;DHT22;14508;50.924;11.600;2023-07-31T12:46:02;24.50;72.50
26954;DHT22;14508;50.924;11.600;2023-07-31T12:48:31;24.40;71.70
26954;DHT22;14508;50.924;11.600;2023-07-31T12:51:01;24.30;72.50
26954;DHT22;14508;50.924;11.600;2023-07-31T12:53:29;24.20;73.60
26954;DHT22;14508;50.924;11.600;2023-07-31T12:55:57;24.40;73.70
26954;DHT22;14508;50.924;11.600;2023-07-31T12:58:25;24.40;73.20
26954;DHT22;14508;50.924;11.600;2023-07-31T13:00:53;24.40;74.20
26954;DHT22;14508;50.924;11.600;2023-07-31T13:03:21;24.40;73.50
26954;DHT22;14508;50.924;11.600;2023-07-31T13:05:50;24.30;70.80
26954;DHT22;14508;50.924;11.600;2023-07-31T13:08:20;24.20;68.90
26954;DHT22;14508;50.924;11.600;2023-07-31T13:10:48;24.30;68.60
26954;DHT22;14508;50.924;11.600;2023-07-31T13:13:16;24.30;66.20
26954;DHT22;14508;50.924;11.600;2023-07-31T13:15:44;24.40;65.30
26954;DHT22;14508;50.924;11.600;2023-07-31T13:18:12;24.30;64.90
26954;DHT22;14508;50.924;11.600;2023-07-31T13:20:40;24.30;64.70
26954;DHT22;14508;50.924;11.600;2023-07-31T13:23:08;24.20;64.30
26954;DHT22;14508;50.924;11.600;2023-07-31T13:25:37;24.20;64.90
26954;DHT22;14508;50.924;11.600;2023-07-31T13:28:05;24.20;65.00
26954;DHT22;14508;50.924;11.600;2023-07-31T13:30:33;24.20;65.90
26954;DHT22;14508;50.924;11.600;2023-07-31T13:33:01;24.00;64.70
26954;DHT22;14508;50.924;11.600;2023-07-31T13:35:29;23.70;63.50
26954;DHT22;14508;50.924;11.600;2023-07-31T13:37:58;23.50;64.20
26954;DHT22;14508;50.924;11.600;2023-07-31T13:40:26;23.30;64.20
26954;DHT22;14508;50.924;11.600;2023-07-31T13:42:55;23.10;65.10
26954;DHT22;14508;50.924;11.600;2023-07-31T13:45:23;22.90;65.60
26954;DHT22;14508;50.924;11.600;2023-07-31T13:47:51;22.90;65.90
26954;DHT22;14508;50.924;11.600;2023-07-31T13:50:19;23.00;66.40
26954;DHT22;14508;50.924;11.600;2023-07-31T13:52:49;23.20;65.90
26954;DHT22;14508;50.924;11.600;2023-07-31T13:55:17;23.50;65.70
26954;DHT22;14508;50.924;11.600;2023-07-31T13:57:45;23.60;64.00
26954;DHT22;14508;50.924;11.600;2023-07-31T14:00:15;23.60;62.70
26954;DHT22;14508;50.924;11.600;2023-07-31T14:02:43;23.60;63.20
26954;DHT22;14508;50.924;11.600;2023-07-31T14:05:12;23.50;63.40
26954;DHT22;14508;50.924;11.600;2023-07-31T14:07:40;23.40;63.80
26954;DHT22;14508;50.924;11.600;2023-07-31T14:10:08;23.30;64.10
26954;DHT22;14508;50.924;11.600;2023-07-31T14:12:36;23.20;63.90
26954;DHT22;14508;50.924;11.600;2023-07-31T14:15:09;23.20;64.50
26954;DHT22;14508;50.924;11.600;2023-07-31T14:17:39;23.20;63.80
26954;DHT22;14508;50.924;11.600;2023-07-31T14:20:09;23.30;63.40
26954;DHT22;14508;50.924;11.600;2023-07-31T14:22:37;23.20;64.30
26954;DHT22;14508;50.924;11.600;2023-07-31T14:25:06;23.50;64.70
26954;DHT22;14508;50.924;11.600;2023-07-31T14:27:36;23.70;63.70
26954;DHT22;14508;50.924;11.600;2023-07-31T14:30:06;24.00;63.40
26954;DHT22;14508;50.924;11.600;2023-07-31T14:32:34;24.20;63.10
26954;DHT22;14508;50.924;11.600;2023-07-31T14:35:05;24.30;61.60
26954;DHT22;14508;50.924;11.600;2023-07-31T14:37:37;24.40;62.20
26954;DHT22;14508;50.924;11.600;2023-07-31T14:40:07;24.70;62.40
26954;DHT22;14508;50.924;11.600;2023-07-31T14:42:35;24.70;60.80
26954;DHT22;14508;50.924;11.600;2023-07-31T14:45:06;24.70;60.30
26954;DHT22;14508;50.924;11.600;2023-07-31T14:47:34;24.70;59.70
26954;DHT22;14508;50.924;11.600;2023-07-31T14:50:03;24.60;60.40
26954;DHT22;14508;50.924;11.600;2023-07-31T14:52:32;24.30;60.70
26954;DHT22;14508;50.924;11.600;2023-07-31T14:55:00;24.00;60.90
26954;DHT22;14508;50.924;11.600;2023-07-31T14:57:28;23.80;61.20
26954;DHT22;14508;50.924;11.600;2023-07-31T14:59:56;23.70;61.30
26954;DHT22;14508;50.924;11.600;2023-07-31T15:02:25;23.50;62.40
26954;DHT22;14508;50.924;11.600;2023-07-31T15:04:54;23.40;62.60
26954;DHT22;14508;50.924;11.600;2023-07-31T15:07:22;23.40;63.90
26954;DHT22;14508;50.924;11.600;2023-07-31T15:09:51;23.40;64.00
26954;DHT22;14508;50.924;11.600;2023-07-31T15:12:19;23.40;63.90
26954;DHT22;14508;50.924;11.600;2023-07-31T15:14:48;23.40;64.50
26954;DHT22;14508;50.924;11.600;2023-07-31T15:17:16;23.40;64.80
26954;DHT22;14508;50.924;11.600;2023-07-31T15:19:44;23.40;64.90
26954;DHT22;14508;50.924;11.600;2023-07-31T15:22:12;23.30;64.70
26954;DHT22;14508;50.924;11.600;2023-07-31T15:24:40;23.30;65.00
26954;DHT22;14508;50.924;11.600;2023-07-31T15:27:09;23.20;65.40